createdAt,value
2023-04-17T00:00:43.648Z,100689.75
2023-04-17T00:05:45.947Z,100686.88
2023-04-17T00:10:51.118Z,100669.44
2023-04-17T00:15:56.167Z,100688.91
2023-04-17T00:20:59.025Z,100674.44
2023-04-17T00:25:58.634Z,100642.22
2023-04-17T00:30:59.099Z,100649.06
2023-04-17T00:35:57.197Z,100653.72
2023-04-17T00:40:57.502Z,100664.78
2023-04-17T00:45:57.495Z,100662.66
2023-04-17T00:51:02.395Z,100665.09
2023-04-17T00:56:05.012Z,100657.69
2023-04-17T01:01:14.382Z,100665.47
2023-04-17T01:06:14.082Z,100664.78
2023-04-17T01:11:14.018Z,100685.81
2023-04-17T01:16:13.485Z,100651.41
2023-04-17T01:21:13.386Z,100678.09
2023-04-17T01:26:18.192Z,100629.72
2023-04-17T01:31:18.702Z,100671.59
2023-04-17T01:36:23.103Z,100659.88
2023-04-17T01:41:25.006Z,100669.13
2023-04-17T01:46:25.209Z,100664.41
2023-04-17T01:51:28.132Z,100659.38
2023-04-17T01:56:32.311Z,100666.03
2023-04-17T02:01:31.573Z,100637.44
2023-04-17T02:06:35.315Z,100646.16
2023-04-17T02:11:35.855Z,100657.59
2023-04-17T02:16:36.567Z,100640.22
2023-04-17T02:21:40.169Z,100636.72
2023-04-17T02:26:42.200Z,100635.47
2023-04-17T02:31:46.546Z,100642.44
2023-04-17T02:36:51.182Z,100611.78
2023-04-17T02:41:53.210Z,100633.78
2023-04-17T02:46:52.299Z,100640.94
2023-04-17T02:51:54.323Z,100622.75
2023-04-17T02:56:53.446Z,100636.09
2023-04-17T03:01:53.728Z,100657.53
2023-04-17T03:06:54.428Z,100634.09
2023-04-17T03:11:54.484Z,100658.31
2023-04-17T03:16:58.304Z,100641.19
2023-04-17T03:21:56.617Z,100663.84
2023-04-17T03:26:58.838Z,100645.28
2023-04-17T03:32:01.481Z,100642.63
2023-04-17T03:36:59.867Z,100635.66
2023-04-17T03:42:03.447Z,100644.19
2023-04-17T03:47:01.848Z,100619.88
2023-04-17T03:52:04.015Z,100654.88
2023-04-17T03:57:04.202Z,100627.28
2023-04-17T04:02:11.913Z,100640.16
2023-04-17T04:07:11.331Z,100647.72
2023-04-17T04:12:16.489Z,100631.56
2023-04-17T04:17:22.266Z,100661.94
2023-04-17T04:22:29.782Z,100650.31
2023-04-17T04:27:33.881Z,100665.41
2023-04-17T04:32:38.808Z,100676.91
2023-04-17T04:37:43.182Z,100670.91
2023-04-17T04:42:49.901Z,100665.91
2023-04-17T04:48:00.877Z,100658.31
2023-04-17T04:53:01.900Z,100667.56
2023-04-17T04:58:38.324Z,100689.00
2023-04-17T05:03:40.926Z,100642.78
2023-04-17T05:08:52.917Z,100690.38
2023-04-17T05:13:54.090Z,100684.38
2023-04-17T05:18:58.006Z,100713.94
2023-04-17T05:24:16.548Z,100732.88
2023-04-17T05:29:26.327Z,100739.91
2023-04-17T05:34:30.302Z,100742.84
2023-04-17T05:39:29.162Z,100735.97
2023-04-17T05:45:10.053Z,100744.25
2023-04-17T05:50:40.374Z,100725.38
2023-04-17T05:55:41.925Z,100720.19
2023-04-17T06:01:13.717Z,100739.94
2023-04-17T06:06:21.796Z,100741.56
2023-04-17T06:11:25.535Z,100744.09
2023-04-17T06:16:26.835Z,100768.88
2023-04-17T06:21:24.897Z,100778.28
2023-04-17T06:26:22.987Z,100779.56
2023-04-17T06:31:22.629Z,100790.94
2023-04-17T06:36:22.567Z,100785.63
2023-04-17T06:41:25.428Z,100800.66
2023-04-17T06:46:30.548Z,100788.00
2023-04-17T06:51:32.056Z,100786.09
2023-04-17T06:56:36.930Z,100797.25
2023-04-17T07:01:35.994Z,100818.34
2023-04-17T07:06:36.792Z,100809.31
2023-04-17T07:17:06.932Z,100813.03
2023-04-17T07:22:08.292Z,100819.47
2023-04-17T07:27:08.604Z,100809.88
2023-04-17T07:32:29.394Z,100850.63
2023-04-17T07:37:28.812Z,100846.50
2023-04-17T07:42:34.894Z,100828.34
2023-04-17T07:47:34.205Z,100833.53
2023-04-17T07:52:31.937Z,100832.44
2023-04-17T07:57:42.977Z,100831.66
2023-04-17T08:02:44.100Z,100854.91
2023-04-17T08:07:44.030Z,100816.31
2023-04-17T08:12:45.358Z,100820.56
2023-04-17T08:17:52.452Z,100860.16
2023-04-17T08:22:54.623Z,100848.59
2023-04-17T08:27:52.965Z,100832.13
2023-04-17T08:32:55.793Z,100853.69
2023-04-17T08:37:58.994Z,100845.34
2023-04-17T08:42:59.144Z,100835.72
2023-04-17T08:48:01.965Z,100851.06
2023-04-17T08:53:01.777Z,100857.25
2023-04-17T08:58:04.263Z,100840.28
2023-04-17T09:03:12.537Z,100848.13
2023-04-17T09:08:27.999Z,100848.66
2023-04-17T09:13:33.547Z,100854.00
2023-04-17T09:18:43.859Z,100833.28
2023-04-17T09:23:55.735Z,100857.94
2023-04-17T09:29:21.608Z,100825.59
2023-04-17T09:34:22.012Z,100834.94
2023-04-17T09:39:30.052Z,100834.75
2023-04-17T09:44:32.730Z,100842.06
2023-04-17T09:49:52.841Z,100804.38
2023-04-17T09:54:55.103Z,100832.66
2023-04-17T10:00:03.347Z,100845.09
2023-04-17T10:05:09.000Z,100795.19
2023-04-17T10:10:11.157Z,100828.84
2023-04-17T10:15:16.099Z,100807.25
2023-04-17T10:20:23.722Z,100834.78
2023-04-17T10:25:35.321Z,100821.22
2023-04-17T10:36:41.427Z,100832.75
2023-04-17T10:47:43.041Z,100809.16
2023-04-17T10:52:49.968Z,100808.75
2023-04-17T10:57:53.310Z,100834.06
2023-04-17T11:02:53.501Z,100837.16
2023-04-17T11:07:53.216Z,100815.78
2023-04-17T11:12:53.809Z,100795.28
2023-04-17T11:17:52.912Z,100827.72
2023-04-17T11:28:30.229Z,100816.63
2023-04-17T11:33:37.312Z,100802.94
2023-04-17T11:38:35.960Z,100813.03
2023-04-17T11:43:39.064Z,100821.81
2023-04-17T11:48:42.532Z,100808.78
2023-04-17T11:53:48.590Z,100809.81
2023-04-17T11:58:57.851Z,100809.00
2023-04-17T12:03:59.296Z,100799.94
2023-04-17T12:09:03.056Z,100815.25
2023-04-17T12:14:07.980Z,100797.28
2023-04-17T12:19:11.762Z,100809.19
2023-04-17T12:24:13.576Z,100825.84
2023-04-17T12:29:15.964Z,100807.56
2023-04-17T12:34:20.899Z,100827.41
2023-04-17T12:39:19.233Z,100803.22
2023-04-17T12:44:34.050Z,100817.66
2023-04-17T12:49:33.120Z,100812.72
2023-04-17T12:54:36.394Z,100799.81
2023-04-17T12:59:43.968Z,100808.63
2023-04-17T13:04:43.855Z,100832.19
2023-04-17T13:09:43.571Z,100833.34
2023-04-17T13:14:44.547Z,100799.47
2023-04-17T13:19:47.049Z,100816.34
2023-04-17T13:24:51.761Z,100825.97
2023-04-17T13:36:39.172Z,100811.34
2023-04-17T13:41:41.379Z,100837.66
2023-04-17T13:46:41.004Z,100790.31
2023-04-17T13:51:39.650Z,100801.16
2023-04-17T13:56:39.165Z,100808.91
2023-04-17T14:01:44.920Z,100813.75
2023-04-17T14:06:44.396Z,100813.38
2023-04-17T14:11:42.986Z,100824.63
2023-04-17T14:16:46.498Z,100812.38
2023-04-17T14:21:44.934Z,100821.84
2023-04-17T14:26:45.519Z,100802.91
2023-04-17T14:31:46.467Z,100797.47
2023-04-17T14:36:49.234Z,100789.94
2023-04-17T14:42:02.256Z,100803.03
2023-04-17T14:47:03.815Z,100805.44
2023-04-17T14:52:03.502Z,100805.63
2023-04-17T14:57:01.975Z,100783.78
2023-04-17T15:02:03.123Z,100779.03
2023-04-17T15:07:05.052Z,100780.31
2023-04-17T15:12:07.962Z,100773.91
2023-04-17T15:17:07.173Z,100789.41
2023-04-17T15:22:11.369Z,100773.97
2023-04-17T15:27:11.028Z,100796.44
2023-04-17T15:32:13.156Z,100774.47
2023-04-17T15:37:15.398Z,100787.56
2023-04-17T15:42:18.254Z,100788.53
2023-04-17T15:47:17.772Z,100774.19
2023-04-17T15:52:16.958Z,100740.78
2023-04-17T15:57:19.378Z,100787.69
2023-04-17T16:02:21.706Z,100792.56
2023-04-17T16:13:13.268Z,100778.69
2023-04-17T16:18:16.381Z,100790.06
2023-04-17T16:23:18.179Z,100775.88
2023-04-17T16:28:18.271Z,100784.38
2023-04-17T16:33:18.717Z,100810.78
2023-04-17T16:38:18.283Z,100786.88
2023-04-17T16:43:22.636Z,100787.41
2023-04-17T16:48:30.773Z,100809.16
2023-04-17T16:53:32.361Z,100820.16
2023-04-17T16:58:34.936Z,100791.31
2023-04-17T17:03:33.737Z,100825.00
2023-04-17T17:08:32.475Z,100828.16
2023-04-17T17:13:34.088Z,100799.13
2023-04-17T17:18:35.966Z,100802.56
2023-04-17T17:23:38.430Z,100828.38
2023-04-17T17:28:38.491Z,100808.94
2023-04-17T17:33:41.246Z,100808.94
2023-04-17T17:38:44.127Z,100809.97
2023-04-17T17:43:45.587Z,100816.47
2023-04-17T17:48:50.694Z,100828.72
2023-04-17T17:53:49.870Z,100826.47
2023-04-17T17:58:54.089Z,100817.44
2023-04-17T18:03:55.044Z,100833.13
2023-04-17T18:08:54.380Z,100843.44
2023-04-17T18:14:00.432Z,100839.03
2023-04-17T18:19:02.114Z,100846.22
2023-04-17T18:24:06.509Z,100847.47
2023-04-17T18:29:06.184Z,100876.06
2023-04-17T18:34:07.044Z,100847.81
2023-04-17T18:39:05.690Z,100859.91
2023-04-17T18:44:04.569Z,100861.56
2023-04-17T18:49:11.658Z,100880.00
2023-04-17T18:54:13.992Z,100874.78
2023-04-17T19:04:57.700Z,100878.06
2023-04-17T19:10:04.635Z,100877.22
2023-04-17T19:15:17.992Z,100853.06
2023-04-17T19:20:17.239Z,100867.75
2023-04-17T19:25:18.913Z,100876.44
2023-04-17T19:30:26.208Z,100885.56
2023-04-17T19:35:38.737Z,100870.84
2023-04-17T19:40:38.265Z,100877.22
2023-04-17T19:45:50.697Z,100876.91
2023-04-17T19:50:54.269Z,100880.31
2023-04-17T19:56:43.182Z,100875.41
2023-04-17T20:01:43.419Z,100895.69
2023-04-17T20:06:48.120Z,100881.47
2023-04-17T20:11:45.894Z,100878.03
2023-04-17T20:16:46.672Z,100870.34
2023-04-17T20:21:51.449Z,100882.06
2023-04-17T20:26:53.903Z,100868.41
2023-04-17T20:31:54.304Z,100879.38
2023-04-17T20:37:03.670Z,100878.19
2023-04-17T20:42:05.958Z,100863.38
2023-04-17T20:47:06.960Z,100863.03
2023-04-17T20:52:10.926Z,100857.28
2023-04-17T20:57:16.122Z,100861.72
2023-04-17T21:02:27.932Z,100861.41
2023-04-17T21:07:30.009Z,100851.63
2023-04-17T21:12:33.389Z,100858.03
2023-04-17T21:17:36.508Z,100847.81
2023-04-17T21:22:50.926Z,100856.88
2023-04-17T21:27:52.792Z,100850.03
2023-04-17T21:32:53.898Z,100847.69
2023-04-17T21:37:55.514Z,100839.84
2023-04-17T21:42:56.739Z,100856.06
2023-04-17T21:48:00.542Z,100873.41
2023-04-17T21:53:05.564Z,100870.28
2023-04-17T21:58:05.667Z,100866.56
2023-04-17T22:03:04.252Z,100856.03
2023-04-17T22:08:34.226Z,100864.13
2023-04-17T22:13:53.586Z,100868.16
2023-04-17T22:19:25.627Z,100881.34
2023-04-17T22:24:39.229Z,100861.25
2023-04-17T22:29:38.893Z,100867.72
2023-04-17T22:34:45.646Z,100869.84
2023-04-17T22:39:45.766Z,100883.75
2023-04-17T22:44:44.417Z,100852.16
2023-04-17T22:49:47.075Z,100881.19
2023-04-17T22:54:46.774Z,100855.03
2023-04-17T22:59:48.582Z,100865.91
2023-04-17T23:04:51.199Z,100840.06
2023-04-17T23:09:51.838Z,100832.78
2023-04-17T23:14:51.894Z,100843.25
2023-04-17T23:19:55.480Z,100832.31
2023-04-17T23:24:58.165Z,100809.28
2023-04-17T23:29:58.038Z,100831.56
2023-04-17T23:34:59.270Z,100853.94
2023-04-17T23:40:05.317Z,100830.06
2023-04-17T23:45:04.462Z,100844.88
2023-04-17T23:50:05.616Z,100846.53
2023-04-17T23:55:05.924Z,100879.50
